sensor_id;sensor_type;location;lat;lon;timestamp;pressure;altitude;pressure_sealevel;temperature;humidity
21236;BME280;10775;42.678;26.324;2023-03-21T00:01:44;98651.63;;;9.45;94.24
21236;BME280;10775;42.678;26.324;2023-03-21T00:04:10;98645.78;;;9.29;94.98
21236;BME280;10775;42.678;26.324;2023-03-21T00:06:36;98652.47;;;9.47;97.11
21236;BME280;10775;42.678;26.324;2023-03-21T00:09:02;98651.56;;;9.51;96.61
21236;BME280;10775;42.678;26.324;2023-03-21T00:11:28;98648.03;;;9.52;96.42
21236;BME280;10775;42.678;26.324;2023-03-21T00:13:53;98651.50;;;9.54;95.65
21236;BME280;10775;42.678;26.324;2023-03-21T00:16:22;98651.69;;;9.42;95.53
21236;BME280;10775;42.678;26.324;2023-03-21T00:18:49;98643.88;;;9.41;96.54
21236;BME280;10775;42.678;26.324;2023-03-21T00:21:21;98639.47;;;9.44;97.91
21236;BME280;10775;42.678;26.324;2023-03-21T00:23:46;98633.78;;;9.19;97.04
21236;BME280;10775;42.678;26.324;2023-03-21T00:26:12;98626.63;;;9.30;99.06
21236;BME280;10775;42.678;26.324;2023-03-21T00:28:41;98622.25;;;9.34;98.77
21236;BME280;10775;42.678;26.324;2023-03-21T00:31:08;98624.94;;;9.28;98.44
21236;BME280;10775;42.678;26.324;2023-03-21T00:33:34;98614.53;;;9.26;98.87
21236;BME280;10775;42.678;26.324;2023-03-21T00:36:00;98624.00;;;9.32;98.85
21236;BME280;10775;42.678;26.324;2023-03-21T00:38:26;98623.88;;;9.40;98.62
21236;BME280;10775;42.678;26.324;2023-03-21T00:40:51;98616.28;;;9.26;98.29
21236;BME280;10775;42.678;26.324;2023-03-21T00:43:18;98616.13;;;9.35;98.78
21236;BME280;10775;42.678;26.324;2023-03-21T00:45:48;98612.47;;;9.47;98.36
21236;BME280;10775;42.678;26.324;2023-03-21T00:48:14;98616.72;;;9.54;96.94
21236;BME280;10775;42.678;26.324;2023-03-21T00:50:40;98613.88;;;9.13;97.18
21236;BME280;10775;42.678;26.324;2023-03-21T00:53:09;98604.47;;;9.03;97.52
21236;BME280;10775;42.678;26.324;2023-03-21T00:55:35;98603.84;;;8.86;98.96
21236;BME280;10775;42.678;26.324;2023-03-21T00:58:03;98605.09;;;8.56;99.54
21236;BME280;10775;42.678;26.324;2023-03-21T01:00:29;98606.16;;;8.41;100.00
21236;BME280;10775;42.678;26.324;2023-03-21T01:02:55;98600.03;;;8.45;100.00
21236;BME280;10775;42.678;26.324;2023-03-21T01:05:28;98608.50;;;8.61;100.00
21236;BME280;10775;42.678;26.324;2023-03-21T01:08:15;98605.84;;;8.65;100.00
21236;BME280;10775;42.678;26.324;2023-03-21T01:10:45;98604.16;;;8.61;100.00
21236;BME280;10775;42.678;26.324;2023-03-21T01:13:13;98600.84;;;8.48;100.00
21236;BME280;10775;42.678;26.324;2023-03-21T01:15:51;98606.59;;;8.75;100.00
21236;BME280;10775;42.678;26.324;2023-03-21T01:18:19;98604.63;;;8.89;100.00
21236;BME280;10775;42.678;26.324;2023-03-21T01:20:46;98596.75;;;8.94;100.00
21236;BME280;10775;42.678;26.324;2023-03-21T01:23:13;98593.41;;;8.86;100.00
21236;BME280;10775;42.678;26.324;2023-03-21T01:25:39;98590.69;;;8.95;100.00
21236;BME280;10775;42.678;26.324;2023-03-21T01:28:04;98596.47;;;9.12;100.00
21236;BME280;10775;42.678;26.324;2023-03-21T01:30:30;98582.47;;;9.20;99.60
21236;BME280;10775;42.678;26.324;2023-03-21T01:32:56;98589.38;;;9.22;99.19
21236;BME280;10775;42.678;26.324;2023-03-21T01:35:22;98581.50;;;9.25;98.41
21236;BME280;10775;42.678;26.324;2023-03-21T01:37:48;98578.34;;;9.05;97.45
21236;BME280;10775;42.678;26.324;2023-03-21T01:40:20;98578.78;;;8.76;99.44
21236;BME280;10775;42.678;26.324;2023-03-21T01:42:46;98571.38;;;8.45;100.00
21236;BME280;10775;42.678;26.324;2023-03-21T01:48:17;98568.19;;;8.21;100.00
21236;BME280;10775;42.678;26.324;2023-03-21T01:50:44;98570.84;;;8.15;100.00
21236;BME280;10775;42.678;26.324;2023-03-21T01:53:10;98572.53;;;8.18;100.00
21236;BME280;10775;42.678;26.324;2023-03-21T01:55:36;98573.13;;;8.44;100.00
21236;BME280;10775;42.678;26.324;2023-03-21T01:58:04;98574.69;;;8.56;100.00
21236;BME280;10775;42.678;26.324;2023-03-21T02:00:30;98566.47;;;8.85;100.00
21236;BME280;10775;42.678;26.324;2023-03-21T02:02:58;98562.97;;;8.88;100.00
21236;BME280;10775;42.678;26.324;2023-03-21T02:05:38;98561.44;;;8.71;100.00
21236;BME280;10775;42.678;26.324;2023-03-21T02:08:05;98560.41;;;8.85;100.00
21236;BME280;10775;42.678;26.324;2023-03-21T02:10:31;98560.44;;;8.82;100.00
21236;BME280;10775;42.678;26.324;2023-03-21T02:12:59;98556.97;;;8.83;100.00
21236;BME280;10775;42.678;26.324;2023-03-21T02:15:39;98557.28;;;8.60;100.00
21236;BME280;10775;42.678;26.324;2023-03-21T02:29:35;98564.31;;;8.53;100.00
21236;BME280;10775;42.678;26.324;2023-03-21T02:37:20;98547.13;;;8.41;100.00
21236;BME280;10775;42.678;26.324;2023-03-21T02:45:25;98555.59;;;8.57;100.00
21236;BME280;10775;42.678;26.324;2023-03-21T02:47:59;98552.41;;;8.34;100.00
21236;BME280;10775;42.678;26.324;2023-03-21T02:50:45;98552.28;;;8.43;100.00
21236;BME280;10775;42.678;26.324;2023-03-21T02:53:15;98552.19;;;8.52;100.00
21236;BME280;10775;42.678;26.324;2023-03-21T02:55:42;98542.72;;;8.45;100.00
21236;BME280;10775;42.678;26.324;2023-03-21T02:58:11;98548.84;;;8.38;100.00
21236;BME280;10775;42.678;26.324;2023-03-21T03:00:38;98550.50;;;8.48;100.00
21236;BME280;10775;42.678;26.324;2023-03-21T03:03:04;98543.25;;;8.68;100.00
21236;BME280;10775;42.678;26.324;2023-03-21T03:05:33;98553.78;;;8.62;100.00
21236;BME280;10775;42.678;26.324;2023-03-21T03:08:41;98547.66;;;8.65;100.00
21236;BME280;10775;42.678;26.324;2023-03-21T03:11:24;98544.91;;;8.76;99.87
21236;BME280;10775;42.678;26.324;2023-03-21T03:19:45;98543.00;;;8.22;100.00
21236;BME280;10775;42.678;26.324;2023-03-21T03:22:25;98546.25;;;8.41;100.00
21236;BME280;10775;42.678;26.324;2023-03-21T03:25:04;98551.50;;;8.33;100.00
21236;BME280;10775;42.678;26.324;2023-03-21T03:27:35;98551.44;;;8.42;100.00
21236;BME280;10775;42.678;26.324;2023-03-21T03:30:03;98554.84;;;8.46;100.00
21236;BME280;10775;42.678;26.324;2023-03-21T03:32:48;98550.59;;;8.37;100.00
21236;BME280;10775;42.678;26.324;2023-03-21T03:35:17;98556.81;;;8.27;100.00
21236;BME280;10775;42.678;26.324;2023-03-21T03:37:47;98542.88;;;8.31;100.00
21236;BME280;10775;42.678;26.324;2023-03-21T03:40:17;98546.84;;;7.89;100.00
21236;BME280;10775;42.678;26.324;2023-03-21T03:42:52;98554.00;;;7.70;100.00
21236;BME280;10775;42.678;26.324;2023-03-21T03:45:20;98552.03;;;7.92;100.00
21236;BME280;10775;42.678;26.324;2023-03-21T03:47:54;98538.28;;;7.79;100.00
21236;BME280;10775;42.678;26.324;2023-03-21T03:50:29;98541.09;;;7.60;100.00
21236;BME280;10775;42.678;26.324;2023-03-21T03:53:05;98551.41;;;7.68;100.00
21236;BME280;10775;42.678;26.324;2023-03-21T03:55:32;98539.19;;;7.76;100.00
21236;BME280;10775;42.678;26.324;2023-03-21T03:58:00;98540.75;;;7.91;100.00
21236;BME280;10775;42.678;26.324;2023-03-21T04:00:26;98544.16;;;7.98;100.00
21236;BME280;10775;42.678;26.324;2023-03-21T04:02:53;98538.97;;;7.96;100.00
21236;BME280;10775;42.678;26.324;2023-03-21T04:05:18;98537.97;;;8.06;100.00
21236;BME280;10775;42.678;26.324;2023-03-21T04:07:47;98550.91;;;8.14;100.00
21236;BME280;10775;42.678;26.324;2023-03-21T04:10:15;98566.44;;;8.22;100.00
21236;BME280;10775;42.678;26.324;2023-03-21T04:12:41;98573.91;;;7.75;100.00
21236;BME280;10775;42.678;26.324;2023-03-21T04:15:07;98576.53;;;7.69;100.00
21236;BME280;10775;42.678;26.324;2023-03-21T04:17:33;98569.47;;;7.83;100.00
21236;BME280;10775;42.678;26.324;2023-03-21T04:19:59;98576.44;;;7.83;100.00
21236;BME280;10775;42.678;26.324;2023-03-21T04:22:24;98576.38;;;7.88;100.00
21236;BME280;10775;42.678;26.324;2023-03-21T04:24:51;98594.53;;;7.92;100.00
21236;BME280;10775;42.678;26.324;2023-03-21T04:27:17;98597.66;;;7.42;100.00
21236;BME280;10775;42.678;26.324;2023-03-21T04:29:43;98601.31;;;7.14;100.00
21236;BME280;10775;42.678;26.324;2023-03-21T04:32:08;98598.19;;;6.60;100.00
21236;BME280;10775;42.678;26.324;2023-03-21T04:34:41;98588.69;;;6.51;100.00
21236;BME280;10775;42.678;26.324;2023-03-21T04:37:08;98596.41;;;6.67;100.00
21236;BME280;10775;42.678;26.324;2023-03-21T04:39:36;98587.41;;;7.20;100.00
21236;BME280;10775;42.678;26.324;2023-03-21T04:42:03;98594.91;;;7.54;100.00
21236;BME280;10775;42.678;26.324;2023-03-21T04:44:28;98574.13;;;7.51;100.00
21236;BME280;10775;42.678;26.324;2023-03-21T04:46:54;98570.66;;;7.52;100.00
21236;BME280;10775;42.678;26.324;2023-03-21T04:49:19;98567.28;;;7.40;100.00
21236;BME280;10775;42.678;26.324;2023-03-21T04:51:45;98561.34;;;7.28;100.00
21236;BME280;10775;42.678;26.324;2023-03-21T04:54:11;98560.19;;;7.56;100.00
21236;BME280;10775;42.678;26.324;2023-03-21T04:56:38;98562.50;;;7.86;100.00
21236;BME280;10775;42.678;26.324;2023-03-21T04:59:09;98562.25;;;8.07;100.00
21236;BME280;10775;42.678;26.324;2023-03-21T05:01:35;98556.03;;;8.20;100.00
21236;BME280;10775;42.678;26.324;2023-03-21T05:04:01;98562.94;;;8.23;100.00
21236;BME280;10775;42.678;26.324;2023-03-21T05:06:28;98567.19;;;8.32;100.00
21236;BME280;10775;42.678;26.324;2023-03-21T05:08:55;98557.56;;;8.40;100.00
21236;BME280;10775;42.678;26.324;2023-03-21T05:11:24;98557.50;;;8.44;100.00
21236;BME280;10775;42.678;26.324;2023-03-21T05:13:50;98559.91;;;8.58;100.00
21236;BME280;10775;42.678;26.324;2023-03-21T05:16:15;98553.69;;;8.68;100.00
21236;BME280;10775;42.678;26.324;2023-03-21T05:18:41;98551.97;;;8.66;100.00
21236;BME280;10775;42.678;26.324;2023-03-21T05:21:06;98562.25;;;8.09;100.00
21236;BME280;10775;42.678;26.324;2023-03-21T05:23:35;98548.16;;;8.26;100.00
21236;BME280;10775;42.678;26.324;2023-03-21T05:26:07;98543.41;;;8.59;100.00
21236;BME280;10775;42.678;26.324;2023-03-21T05:28:33;98548.28;;;8.81;100.00
21236;BME280;10775;42.678;26.324;2023-03-21T05:31:04;98549.75;;;8.99;99.67
21236;BME280;10775;42.678;26.324;2023-03-21T05:33:30;98548.72;;;9.10;98.46
21236;BME280;10775;42.678;26.324;2023-03-21T05:35:56;98555.47;;;9.22;97.78
21236;BME280;10775;42.678;26.324;2023-03-21T05:38:23;98561.22;;;9.43;96.90
21236;BME280;10775;42.678;26.324;2023-03-21T05:40:49;98554.59;;;9.71;94.97
21236;BME280;10775;42.678;26.324;2023-03-21T05:43:15;98548.28;;;9.83;93.71
21236;BME280;10775;42.678;26.324;2023-03-21T05:45:40;98551.53;;;9.97;92.61
21236;BME280;10775;42.678;26.324;2023-03-21T05:48:06;98554.69;;;10.12;91.75
21236;BME280;10775;42.678;26.324;2023-03-21T05:50:32;98560.47;;;10.29;90.68
21236;BME280;10775;42.678;26.324;2023-03-21T05:52:57;98549.03;;;10.35;89.97
21236;BME280;10775;42.678;26.324;2023-03-21T05:55:24;98565.53;;;10.37;89.82
21236;BME280;10775;42.678;26.324;2023-03-21T05:57:49;98575.34;;;10.24;89.22
21236;BME280;10775;42.678;26.324;2023-03-21T06:00:16;98577.66;;;9.96;91.29
21236;BME280;10775;42.678;26.324;2023-03-21T06:02:42;98579.78;;;9.74;92.41
21236;BME280;10775;42.678;26.324;2023-03-21T06:05:08;98580.75;;;9.19;96.36
21236;BME280;10775;42.678;26.324;2023-03-21T06:07:35;98583.47;;;9.11;97.40
21236;BME280;10775;42.678;26.324;2023-03-21T06:10:02;98584.94;;;9.27;95.97
21236;BME280;10775;42.678;26.324;2023-03-21T06:12:27;98587.09;;;9.53;94.44
21236;BME280;10775;42.678;26.324;2023-03-21T06:14:53;98586.69;;;9.78;92.94
21236;BME280;10775;42.678;26.324;2023-03-21T06:17:18;98586.38;;;9.95;91.74
21236;BME280;10775;42.678;26.324;2023-03-21T06:19:44;98589.84;;;9.95;90.98
21236;BME280;10775;42.678;26.324;2023-03-21T06:22:09;98584.63;;;9.95;91.12
21236;BME280;10775;42.678;26.324;2023-03-21T06:24:35;98582.94;;;9.93;90.85
21236;BME280;10775;42.678;26.324;2023-03-21T06:27:00;98583.00;;;9.90;90.79
21236;BME280;10775;42.678;26.324;2023-03-21T06:29:26;98594.59;;;9.73;91.80
21236;BME280;10775;42.678;26.324;2023-03-21T06:31:51;98594.88;;;9.58;92.08
21236;BME280;10775;42.678;26.324;2023-03-21T06:34:17;98592.81;;;9.77;91.63
21236;BME280;10775;42.678;26.324;2023-03-21T06:36:42;98596.06;;;9.90;90.89
21236;BME280;10775;42.678;26.324;2023-03-21T06:39:09;98597.78;;;9.91;92.79
21236;BME280;10775;42.678;26.324;2023-03-21T06:41:34;98593.66;;;9.26;96.49
21236;BME280;10775;42.678;26.324;2023-03-21T06:44:01;98591.06;;;9.76;92.80
21236;BME280;10775;42.678;26.324;2023-03-21T06:46:26;98589.72;;;10.01;91.79
21236;BME280;10775;42.678;26.324;2023-03-21T06:48:52;98603.25;;;10.22;90.30
21236;BME280;10775;42.678;26.324;2023-03-21T06:51:17;98608.09;;;10.43;89.17
21236;BME280;10775;42.678;26.324;2023-03-21T06:53:43;98601.06;;;10.47;88.73
21236;BME280;10775;42.678;26.324;2023-03-21T06:56:10;98602.03;;;10.41;88.14
21236;BME280;10775;42.678;26.324;2023-03-21T06:58:36;98600.47;;;10.33;88.17
21236;BME280;10775;42.678;26.324;2023-03-21T07:01:03;98608.63;;;10.61;87.06
21236;BME280;10775;42.678;26.324;2023-03-21T07:03:29;98605.84;;;10.69;86.18
21236;BME280;10775;42.678;26.324;2023-03-21T07:05:54;98609.88;;;10.41;89.29
21236;BME280;10775;42.678;26.324;2023-03-21T07:08:20;98600.16;;;10.88;87.96
21236;BME280;10775;42.678;26.324;2023-03-21T07:10:46;98604.38;;;11.67;85.25
21236;BME280;10775;42.678;26.324;2023-03-21T07:13:12;98607.97;;;12.60;81.09
21236;BME280;10775;42.678;26.324;2023-03-21T07:15:38;98611.09;;;12.73;77.97
21236;BME280;10775;42.678;26.324;2023-03-21T07:18:04;98602.41;;;13.00;77.24
21236;BME280;10775;42.678;26.324;2023-03-21T07:20:30;98612.63;;;13.10;75.98
21236;BME280;10775;42.678;26.324;2023-03-21T07:22:56;98610.47;;;13.22;76.23
21236;BME280;10775;42.678;26.324;2023-03-21T07:25:22;98610.63;;;13.18;77.53
21236;BME280;10775;42.678;26.324;2023-03-21T07:27:47;98610.31;;;13.55;76.90
21236;BME280;10775;42.678;26.324;2023-03-21T07:30:13;98611.28;;;14.04;75.86
21236;BME280;10775;42.678;26.324;2023-03-21T07:32:39;98611.84;;;14.12;75.64
21236;BME280;10775;42.678;26.324;2023-03-21T07:35:06;98611.31;;;14.03;76.63
21236;BME280;10775;42.678;26.324;2023-03-21T07:37:32;98605.00;;;14.57;75.80
21236;BME280;10775;42.678;26.324;2023-03-21T07:39:57;98602.97;;;14.40;74.57
21236;BME280;10775;42.678;26.324;2023-03-21T07:42:23;98615.56;;;14.07;77.41
21236;BME280;10775;42.678;26.324;2023-03-21T07:44:48;98615.41;;;13.86;77.71
21236;BME280;10775;42.678;26.324;2023-03-21T07:47:15;98619.09;;;13.54;80.73
21236;BME280;10775;42.678;26.324;2023-03-21T07:49:40;98608.53;;;14.07;81.35
21236;BME280;10775;42.678;26.324;2023-03-21T07:52:06;98612.56;;;15.12;77.55
21236;BME280;10775;42.678;26.324;2023-03-21T07:54:32;98608.47;;;16.12;73.88
21236;BME280;10775;42.678;26.324;2023-03-21T07:56:57;98613.53;;;16.56;70.48
21236;BME280;10775;42.678;26.324;2023-03-21T07:59:23;98613.38;;;16.00;72.10
21236;BME280;10775;42.678;26.324;2023-03-21T08:01:49;98607.84;;;16.25;72.23
21236;BME280;10775;42.678;26.324;2023-03-21T08:04:15;98609.56;;;16.47;69.78
21236;BME280;10775;42.678;26.324;2023-03-21T08:06:41;98615.72;;;15.86;72.29
21236;BME280;10775;42.678;26.324;2023-03-21T08:09:07;98614.00;;;16.26;72.88
21236;BME280;10775;42.678;26.324;2023-03-21T08:11:32;98613.03;;;16.47;72.16
21236;BME280;10775;42.678;26.324;2023-03-21T08:13:59;98606.16;;;17.02;69.96
21236;BME280;10775;42.678;26.324;2023-03-21T08:16:25;98590.00;;;16.90;71.00
21236;BME280;10775;42.678;26.324;2023-03-21T08:18:50;98604.28;;;16.66;72.81
21236;BME280;10775;42.678;26.324;2023-03-21T08:21:16;98597.50;;;16.41;69.99
21236;BME280;10775;42.678;26.324;2023-03-21T08:23:41;98598.50;;;16.39;71.06
21236;BME280;10775;42.678;26.324;2023-03-21T08:26:07;98589.19;;;16.88;74.64
21236;BME280;10775;42.678;26.324;2023-03-21T08:28:34;98591.47;;;17.51;72.07
21236;BME280;10775;42.678;26.324;2023-03-21T08:31:06;98592.75;;;17.43;70.49
21236;BME280;10775;42.678;26.324;2023-03-21T08:33:32;98586.91;;;17.90;68.97
21236;BME280;10775;42.678;26.324;2023-03-21T08:35:59;98576.84;;;17.96;69.27
21236;BME280;10775;42.678;26.324;2023-03-21T08:38:25;98581.13;;;17.81;68.07
21236;BME280;10775;42.678;26.324;2023-03-21T08:40:54;98577.78;;;17.78;69.36
21236;BME280;10775;42.678;26.324;2023-03-21T08:43:19;98562.97;;;18.26;68.69
21236;BME280;10775;42.678;26.324;2023-03-21T08:45:45;98555.91;;;18.76;67.46
21236;BME280;10775;42.678;26.324;2023-03-21T08:48:10;98554.88;;;19.10;66.24
21236;BME280;10775;42.678;26.324;2023-03-21T08:50:36;98556.22;;;19.33;65.55
21236;BME280;10775;42.678;26.324;2023-03-21T08:53:01;98554.94;;;19.24;65.31
21236;BME280;10775;42.678;26.324;2023-03-21T08:55:27;98557.41;;;19.27;64.65
21236;BME280;10775;42.678;26.324;2023-03-21T08:57:52;98557.25;;;19.15;65.40
21236;BME280;10775;42.678;26.324;2023-03-21T09:00:18;98556.56;;;19.27;62.98
21236;BME280;10775;42.678;26.324;2023-03-21T09:02:46;98550.91;;;18.69;62.59
21236;BME280;10775;42.678;26.324;2023-03-21T09:05:13;98550.41;;;18.79;64.42
21236;BME280;10775;42.678;26.324;2023-03-21T09:07:39;98556.09;;;18.71;66.26
21236;BME280;10775;42.678;26.324;2023-03-21T09:10:08;98558.06;;;18.52;67.90
21236;BME280;10775;42.678;26.324;2023-03-21T09:12:35;98549.44;;;18.48;64.24
21236;BME280;10775;42.678;26.324;2023-03-21T09:15:01;98544.34;;;18.28;68.08
21236;BME280;10775;42.678;26.324;2023-03-21T09:17:29;98539.03;;;18.61;68.48
21236;BME280;10775;42.678;26.324;2023-03-21T09:19:56;98532.09;;;18.58;64.88
21236;BME280;10775;42.678;26.324;2023-03-21T09:22:23;98528.19;;;18.65;67.03
21236;BME280;10775;42.678;26.324;2023-03-21T09:24:50;98531.00;;;18.46;66.34
21236;BME280;10775;42.678;26.324;2023-03-21T09:27:16;98528.53;;;18.59;69.35
21236;BME280;10775;42.678;26.324;2023-03-21T09:29:43;98530.34;;;18.59;66.63
21236;BME280;10775;42.678;26.324;2023-03-21T09:32:11;98528.28;;;18.15;66.31
21236;BME280;10775;42.678;26.324;2023-03-21T09:34:38;98530.09;;;17.97;67.42
21236;BME280;10775;42.678;26.324;2023-03-21T09:37:08;98522.75;;;17.86;71.13
21236;BME280;10775;42.678;26.324;2023-03-21T09:39:40;98511.13;;;17.71;71.92
21236;BME280;10775;42.678;26.324;2023-03-21T09:43:12;98511.56;;;17.46;71.95
21236;BME280;10775;42.678;26.324;2023-03-21T09:45:26;98510.06;;;17.41;74.04
21236;BME280;10775;42.678;26.324;2023-03-21T09:47:54;98508.72;;;17.14;72.57
21236;BME280;10775;42.678;26.324;2023-03-21T09:50:32;98499.19;;;16.74;73.03
21236;BME280;10775;42.678;26.324;2023-03-21T09:55:30;98491.38;;;16.72;74.63
21236;BME280;10775;42.678;26.324;2023-03-21T10:00:52;98492.44;;;16.87;73.55
21236;BME280;10775;42.678;26.324;2023-03-21T10:03:28;98494.31;;;16.85;75.38
21236;BME280;10775;42.678;26.324;2023-03-21T10:05:55;98497.38;;;16.95;74.85
21236;BME280;10775;42.678;26.324;2023-03-21T10:08:34;98495.66;;;17.11;73.64
21236;BME280;10775;42.678;26.324;2023-03-21T10:11:25;98495.59;;;17.30;72.85
21236;BME280;10775;42.678;26.324;2023-03-21T10:16:40;98507.13;;;17.64;71.28
21236;BME280;10775;42.678;26.324;2023-03-21T10:19:11;98495.38;;;17.87;70.93
21236;BME280;10775;42.678;26.324;2023-03-21T10:21:39;98493.63;;;18.03;70.34
21236;BME280;10775;42.678;26.324;2023-03-21T10:24:13;98496.13;;;18.22;66.95
21236;BME280;10775;42.678;26.324;2023-03-21T10:26:42;98500.56;;;17.19;68.33
21236;BME280;10775;42.678;26.324;2023-03-21T10:29:09;98507.63;;;17.01;71.60
21236;BME280;10775;42.678;26.324;2023-03-21T10:31:37;98504.56;;;16.91;69.95
21236;BME280;10775;42.678;26.324;2023-03-21T10:34:49;98506.94;;;17.32;70.86
21236;BME280;10775;42.678;26.324;2023-03-21T10:36:55;98508.56;;;17.35;71.25
21236;BME280;10775;42.678;26.324;2023-03-21T10:39:26;98505.53;;;17.25;71.13
21236;BME280;10775;42.678;26.324;2023-03-21T10:41:52;98501.16;;;17.07;70.22
21236;BME280;10775;42.678;26.324;2023-03-21T10:44:18;98496.38;;;17.32;69.31
21236;BME280;10775;42.678;26.324;2023-03-21T10:46:53;98496.69;;;17.61;70.49
21236;BME280;10775;42.678;26.324;2023-03-21T10:49:19;98497.53;;;17.27;69.40
21236;BME280;10775;42.678;26.324;2023-03-21T10:51:48;98499.78;;;17.17;70.24
21236;BME280;10775;42.678;26.324;2023-03-21T10:54:18;98494.53;;;17.52;70.64
21236;BME280;10775;42.678;26.324;2023-03-21T10:59:28;98493.34;;;17.75;68.81
21236;BME280;10775;42.678;26.324;2023-03-21T11:02:02;98481.81;;;17.93;68.78
21236;BME280;10775;42.678;26.324;2023-03-21T11:04:28;98482.50;;;17.97;66.89
21236;BME280;10775;42.678;26.324;2023-03-21T11:06:57;98479.84;;;17.46;67.87
21236;BME280;10775;42.678;26.324;2023-03-21T11:09:26;98472.25;;;16.86;69.49
21236;BME280;10775;42.678;26.324;2023-03-21T11:12:11;98477.00;;;16.42;71.45
21236;BME280;10775;42.678;26.324;2023-03-21T11:14:46;98469.25;;;16.75;72.44
21236;BME280;10775;42.678;26.324;2023-03-21T11:19:46;98462.75;;;17.87;70.39
21236;BME280;10775;42.678;26.324;2023-03-21T11:22:13;98458.66;;;18.30;67.99
21236;BME280;10775;42.678;26.324;2023-03-21T11:24:40;98461.91;;;18.67;67.88
21236;BME280;10775;42.678;26.324;2023-03-21T11:27:10;98462.34;;;18.59;65.48
21236;BME280;10775;42.678;26.324;2023-03-21T11:29:45;98451.84;;;18.10;66.59
21236;BME280;10775;42.678;26.324;2023-03-21T11:32:31;98451.25;;;18.21;68.28
21236;BME280;10775;42.678;26.324;2023-03-21T11:35:05;98456.03;;;18.46;66.79
21236;BME280;10775;42.678;26.324;2023-03-21T11:37:43;98454.66;;;18.71;65.65
21236;BME280;10775;42.678;26.324;2023-03-21T11:42:42;98446.28;;;19.24;65.00
21236;BME280;10775;42.678;26.324;2023-03-21T11:45:15;98441.28;;;19.79;64.02
21236;BME280;10775;42.678;26.324;2023-03-21T11:47:42;98440.06;;;19.70;60.83
21236;BME280;10775;42.678;26.324;2023-03-21T11:50:20;98429.75;;;19.80;61.61
21236;BME280;10775;42.678;26.324;2023-03-21T11:58:21;98422.88;;;18.86;64.08
21236;BME280;10775;42.678;26.324;2023-03-21T12:04:26;98419.31;;;18.56;64.43
21236;BME280;10775;42.678;26.324;2023-03-21T12:07:04;98405.84;;;18.29;65.10
21236;BME280;10775;42.678;26.324;2023-03-21T12:15:02;98392.78;;;18.25;67.37
21236;BME280;10775;42.678;26.324;2023-03-21T12:17:46;98385.94;;;18.21;68.55
21236;BME280;10775;42.678;26.324;2023-03-21T12:20:39;98375.50;;;18.50;67.63
21236;BME280;10775;42.678;26.324;2023-03-21T12:44:42;98332.41;;;18.48;68.02
21236;BME280;10775;42.678;26.324;2023-03-21T12:47:14;98329.22;;;18.57;63.84
21236;BME280;10775;42.678;26.324;2023-03-21T12:49:46;98328.34;;;18.73;69.49
21236;BME280;10775;42.678;26.324;2023-03-21T12:52:20;98331.50;;;18.63;67.35
21236;BME280;10775;42.678;26.324;2023-03-21T12:54:52;98325.94;;;18.68;68.05
21236;BME280;10775;42.678;26.324;2023-03-21T12:57:26;98323.38;;;18.82;68.07
21236;BME280;10775;42.678;26.324;2023-03-21T13:02:43;98319.19;;;18.78;63.88
21236;BME280;10775;42.678;26.324;2023-03-21T13:05:30;98326.13;;;18.65;64.32
21236;BME280;10775;42.678;26.324;2023-03-21T13:08:08;98324.34;;;18.65;62.85
21236;BME280;10775;42.678;26.324;2023-03-21T13:10:38;98322.19;;;18.72;63.30
21236;BME280;10775;42.678;26.324;2023-03-21T13:15:49;98299.66;;;18.95;63.46
21236;BME280;10775;42.678;26.324;2023-03-21T13:23:13;98288.09;;;18.06;66.30
21236;BME280;10775;42.678;26.324;2023-03-21T13:25:45;98288.94;;;18.06;68.01
21236;BME280;10775;42.678;26.324;2023-03-21T13:28:33;98290.53;;;18.24;68.04
21236;BME280;10775;42.678;26.324;2023-03-21T13:33:47;98285.25;;;18.24;71.57
21236;BME280;10775;42.678;26.324;2023-03-21T13:36:16;98275.03;;;17.87;67.34
21236;BME280;10775;42.678;26.324;2023-03-21T13:38:49;98270.59;;;18.03;70.64
21236;BME280;10775;42.678;26.324;2023-03-21T13:41:19;98249.63;;;17.84;69.62
21236;BME280;10775;42.678;26.324;2023-03-21T13:43:54;98234.06;;;18.10;72.87
21236;BME280;10775;42.678;26.324;2023-03-21T13:48:58;98227.28;;;18.36;69.00
21236;BME280;10775;42.678;26.324;2023-03-21T13:51:36;98239.28;;;18.41;70.41
21236;BME280;10775;42.678;26.324;2023-03-21T13:59:16;98269.69;;;18.34;71.05
21236;BME280;10775;42.678;26.324;2023-03-21T14:04:28;98237.16;;;17.70;67.80
21236;BME280;10775;42.678;26.324;2023-03-21T14:09:40;98239.81;;;17.70;72.09
21236;BME280;10775;42.678;26.324;2023-03-21T14:12:11;98244.00;;;17.74;71.29
21236;BME280;10775;42.678;26.324;2023-03-21T14:14:45;98242.97;;;17.77;73.80
21236;BME280;10775;42.678;26.324;2023-03-21T14:17:19;98248.69;;;17.69;70.93
21236;BME280;10775;42.678;26.324;2023-03-21T14:19:51;98259.44;;;17.82;73.30
21236;BME280;10775;42.678;26.324;2023-03-21T14:22:17;98260.09;;;17.54;73.36
21236;BME280;10775;42.678;26.324;2023-03-21T14:24:56;98269.38;;;17.61;73.40
21236;BME280;10775;42.678;26.324;2023-03-21T14:27:22;98274.69;;;17.77;76.06
21236;BME280;10775;42.678;26.324;2023-03-21T14:29:49;98288.97;;;17.90;75.47
21236;BME280;10775;42.678;26.324;2023-03-21T14:32:21;98292.78;;;18.00;75.29
21236;BME280;10775;42.678;26.324;2023-03-21T14:34:48;98292.53;;;18.05;75.52
21236;BME280;10775;42.678;26.324;2023-03-21T14:37:26;98291.59;;;18.06;74.69
21236;BME280;10775;42.678;26.324;2023-03-21T14:39:57;98302.34;;;18.03;74.95
21236;BME280;10775;42.678;26.324;2023-03-21T14:42:24;98296.03;;;17.90;70.72
21236;BME280;10775;42.678;26.324;2023-03-21T14:44:50;98309.69;;;17.82;72.65
21236;BME280;10775;42.678;26.324;2023-03-21T14:47:21;98315.19;;;17.77;72.22
21236;BME280;10775;42.678;26.324;2023-03-21T14:49:48;98321.41;;;17.76;70.13
21236;BME280;10775;42.678;26.324;2023-03-21T14:52:29;98316.28;;;17.73;68.68